River Lune — C6LT7 — position and weather

sailwx.info

Track history (hours):
 
Tides and Currents Weather Stations Pressure Air Temp Water Temp Dewpoint Dewpoint Depression Visibility Wind Speed Wind Dir Waves Ship Positions

River Lune

Operator: Indochina Ship Management (UK) Ltd

Last reported at 2016-Jan-11 02:33 UTC. Time now 2017-May-26 16:49 UTC.
Position N 40°54' E 002°11'.
Warning: this ship's position is years out of date!

Length 122 m; draft 4.7 m.

Type: Cargo ship. MMSI: 308498000.

Date/timePositionNaut miles runAvg speedWind from/ knotsBaromVisibWave heightAir tempDewpointWater temp
2016-Jan-11 02:33N 40°54' E 002°11'1313.1
2016-Jan-11 01:33N 40°41' E 002°11'1313.1
2016-Jan-11 00:33N 40°28' E 002°11'1313.3
2016-Jan-10 23:33N 40°15' E 002°12'1313.3
2016-Jan-10 22:33N 40°02' E 002°11'1313.2
2016-Jan-10 21:33N 39°49' E 002°12'1913.2
2016-Jan-10 20:05N 39°29' E 002°14'712.8
2016-Jan-10 19:33N 39°23' E 002°15'1312.4
2016-Jan-10 18:33N 39°10' E 002°18'10 9.1
2016-Jan-10 17:27N 39°03' E 002°27'9 9.8
2016-Jan-10 16:33N 39°01' E 002°38'10 9.9
2016-Jan-10 15:33N 38°52' E 002°43'1111.2
2016-Jan-10 14:33N 38°41' E 002°42'1211.4
2016-Jan-10 13:28N 38°29' E 002°37'  
2016-Jan-03 06:24N 43°13' E 005°11'911.0
2016-Jan-03 05:33N 43°09' E 004°59'1212.1
2016-Jan-03 04:33N 43°07' E 004°43'1212.2
2016-Jan-03 03:33N 43°06' E 004°26'160 6.5
2016-Jan-02 03:06N 41°03' E 002°09'611.2
2016-Jan-02 02:33N 40°56' E 002°08'1111.2
2016-Jan-02 01:33N 40°45' E 002°06'1111.1
2016-Jan-02 00:33N 40°34' E 002°04'1110.7
2016-Jan-01 23:33N 40°24' E 002°03'1110.8
2016-Jan-01 22:33N 40°13' E 002°02'1111.0
2016-Jan-01 21:33N 40°02' E 002°01'1110.9
2016-Jan-01 20:33N 39°51' E 002°00'1311.9
2016-Jan-01 19:27N 39°38' E 002°02'1211.5
2016-Jan-01 18:26N 39°27' E 002°06'8 8.8
2016-Jan-01 17:33N 39°20' E 002°10'2 1.5
2016-Jan-01 16:33N 39°18' E 002°09'2 1.6
2016-Jan-01 15:34N 39°16' E 002°09'2 1.7
2016-Jan-01 14:34N 39°15' E 002°08'2 1.8
2016-Jan-01 13:33N 39°13' E 002°08'2 1.7
2016-Jan-01 12:33N 39°11' E 002°08'2 1.7
2016-Jan-01 11:34N 39°10' E 002°08'2 1.7
2016-Jan-01 10:33N 39°08' E 002°08'1 1.5
2016-Jan-01 09:33N 39°06' E 002°08'2 1.5
2016-Jan-01 08:34N 39°05' E 002°08'1 1.4
2016-Jan-01 07:34N 39°04' E 002°09'1 1.1
2016-Jan-01 06:33N 39°02' E 002°09'1 0.8
2016-Jan-01 05:33N 39°02' E 002°08'1 1.0
2016-Jan-01 04:34N 39°01' E 002°08'1 1.1
2016-Jan-01 03:33N 38°60' E 002°08'1 1.0
2016-Jan-01 02:34N 38°59' E 002°08'  
Track history (hours):
 
Tides and Currents Weather Stations Pressure Air Temp Water Temp Dewpoint Dewpoint Depression Visibility Wind Speed Wind Dir Waves Ship Positions

River Lune

Operator: Indochina Ship Management (UK) Ltd

Last reported at 2016-Jan-11 02:33 UTC. Time now 2017-May-26 16:49 UTC.
Position N 40°54' E 002°11'.
Warning: this ship's position is years out of date!

Length 122 m; draft 4.7 m.

Type: Cargo ship. MMSI: 308498000.

Date/timePositionNaut miles runAvg speedWind from/ knotsBaromVisibWave heightAir tempDewpointWater temp
2016-Jan-11 02:33N 40°54' E 002°11'1313.1
2016-Jan-11 01:33N 40°41' E 002°11'1313.1
2016-Jan-11 00:33N 40°28' E 002°11'1313.3
2016-Jan-10 23:33N 40°15' E 002°12'1313.3
2016-Jan-10 22:33N 40°02' E 002°11'1313.2
2016-Jan-10 21:33N 39°49' E 002°12'1913.2
2016-Jan-10 20:05N 39°29' E 002°14'712.8
2016-Jan-10 19:33N 39°23' E 002°15'1312.4
2016-Jan-10 18:33N 39°10' E 002°18'10 9.1
2016-Jan-10 17:27N 39°03' E 002°27'9 9.8
2016-Jan-10 16:33N 39°01' E 002°38'10 9.9
2016-Jan-10 15:33N 38°52' E 002°43'1111.2
2016-Jan-10 14:33N 38°41' E 002°42'1211.4
2016-Jan-10 13:28N 38°29' E 002°37'  
2016-Jan-03 06:24N 43°13' E 005°11'911.0
2016-Jan-03 05:33N 43°09' E 004°59'1212.1
2016-Jan-03 04:33N 43°07' E 004°43'1212.2
2016-Jan-03 03:33N 43°06' E 004°26'160 6.5
2016-Jan-02 03:06N 41°03' E 002°09'611.2
2016-Jan-02 02:33N 40°56' E 002°08'1111.2
2016-Jan-02 01:33N 40°45' E 002°06'1111.1
2016-Jan-02 00:33N 40°34' E 002°04'1110.7
2016-Jan-01 23:33N 40°24' E 002°03'1110.8
2016-Jan-01 22:33N 40°13' E 002°02'1111.0
2016-Jan-01 21:33N 40°02' E 002°01'1110.9
2016-Jan-01 20:33N 39°51' E 002°00'1311.9
2016-Jan-01 19:27N 39°38' E 002°02'1211.5
2016-Jan-01 18:26N 39°27' E 002°06'8 8.8
2016-Jan-01 17:33N 39°20' E 002°10'2 1.5
2016-Jan-01 16:33N 39°18' E 002°09'2 1.6
2016-Jan-01 15:34N 39°16' E 002°09'2 1.7
2016-Jan-01 14:34N 39°15' E 002°08'2 1.8
2016-Jan-01 13:33N 39°13' E 002°08'2 1.7
2016-Jan-01 12:33N 39°11' E 002°08'2 1.7
2016-Jan-01 11:34N 39°10' E 002°08'2 1.7
2016-Jan-01 10:33N 39°08' E 002°08'1 1.5
2016-Jan-01 09:33N 39°06' E 002°08'2 1.5
2016-Jan-01 08:34N 39°05' E 002°08'1 1.4
2016-Jan-01 07:34N 39°04' E 002°09'1 1.1
2016-Jan-01 06:33N 39°02' E 002°09'1 0.8
2016-Jan-01 05:33N 39°02' E 002°08'1 1.0
2016-Jan-01 04:34N 39°01' E 002°08'1 1.1
2016-Jan-01 03:33N 38°60' E 002°08'1 1.0
2016-Jan-01 02:34N 38°59' E 002°08'  

Dump ship's entire track history